Run Yu Run

我跑步已经 11 年了,下面列表展示的是 2024 的数据


2024 Journey
117 Runs
1,420.5 KM
5'24" Avg Pace
6 day Streak
153 Avg Heart Rate

2023 Journey
181 Runs
2,157.6 KM
5'10" Avg Pace
5 day Streak
160 Avg Heart Rate

2022 Journey
87 Runs
711.6 KM
5'00" Avg Pace
2 day Streak
168 Avg Heart Rate

2021 Journey
15 Runs
86.1 KM
5'44" Avg Pace
3 day Streak

2020 Journey
1 Runs
4 KM
5'31" Avg Pace
1 day Streak

2019 Journey
8 Runs
48.5 KM
5'40" Avg Pace
1 day Streak

2018 Journey
1 Runs
5.3 KM
5'18" Avg Pace
1 day Streak

2017 Journey
32 Runs
209.7 KM
5'06" Avg Pace
3 day Streak

2016 Journey
37 Runs
307.9 KM
5'48" Avg Pace
2 day Streak

2015 Journey
7 Runs
61.5 KM
6'25" Avg Pace
2 day Streak

2014 Journey
12 Runs
71.1 KM
6'12" Avg Pace
2 day Streak

Total Journey
498 Runs
5,083.8 KM
5'17" Avg Pace
6 day Streak
158 Avg Heart Rate

KMPaceBPMTimeDate
午后跑步10.225'35"15557min2024-07-23 18:58:07
午后跑步10.385'18"15955min2024-07-22 18:54:36
午后跑步15.275'41"15887min2024-07-21 18:46:56
傍晚跑步10.245'34"15457min2024-07-17 19:16:13
午后跑步10.065'22"16054min2024-07-16 18:56:14
午后跑步13.115'28"15571min2024-07-15 18:50:09
午后跑步5.205'21"14827min2024-07-14 18:08:43
傍晚跑步10.015'31"15255min2024-07-11 19:23:24
傍晚跑步10.045'39"15256min2024-07-10 19:08:16
傍晚跑步11.335'07"16358min2024-07-09 19:00:17
清晨跑步14.175'44"16181min2024-07-07 07:38:35
傍晚跑步10.035'37"15456min2024-07-04 19:12:13
午后跑步10.165'26"16255min2024-07-03 18:56:37
傍晚跑步10.055'44"16057min2024-07-02 19:16:09
清晨跑步10.175'24"15454min2024-06-29 07:04:11
傍晚跑步15.195'15"15779min2024-06-27 19:08:40
午后跑步10.395'17"15155min2024-06-25 17:19:17
傍晚跑步10.715'55"14863min2024-06-24 19:56:18
午后跑步14.675'24"15979min2024-06-22 16:23:35
午后跑步1.745'21"1419min2024-06-22 16:08:03
午后跑步10.315'35"15457min2024-06-20 16:55:09
午后跑步14.715'27"15880min2024-06-19 18:44:33
傍晚跑步10.205'42"15758min2024-06-17 20:17:45
午后跑步13.545'05"16869min2024-06-16 18:38:29
午间跑步8.465'41"15948min2024-06-15 11:15:39
午间跑步4.034'46"16219min2024-05-30 14:43:27
傍晚跑步8.095'22"15343min2024-05-29 19:47:48
午后跑步10.285'54"14060min2024-05-28 17:19:54
傍晚跑步10.185'31"15756min2024-05-27 19:39:08
傍晚跑步1.885'02"1479min2024-05-27 19:16:58
午后跑步3.035'05"16215min2024-05-26 16:41:52
午后跑步7.085'11"15636min2024-05-26 16:01:11
午后跑步11.025'30"16260min2024-05-24 18:58:01
清晨跑步8.095'49"15947min2024-05-21 09:05:58
清晨跑步12.696'04"15277min2024-05-20 07:57:52
午后跑步11.054'52"16453min2024-05-13 17:19:17
清晨跑步10.055'34"14756min2024-05-12 07:25:16
傍晚跑步2.635'29"14714min2024-05-11 20:15:51
午后跑步12.035'33"15366min2024-05-09 15:28:59
午后跑步11.085'25"15460min2024-05-07 15:29:10
午后跑步16.345'33"15090min2024-05-06 15:46:45
清晨跑步8.905'46"14651min2024-05-04 06:23:48
清晨跑步3.655'40"14220min2024-05-03 09:26:36
全程马拉松42.274'48"167203min2024-04-28 06:10:22
清晨跑步5.385'56"14531min2024-04-27 08:02:57
午后跑步11.035'05"15256min2024-04-25 17:58:30
午后跑步12.274'53"15859min2024-04-23 18:21:13
半程马拉松21.175'28"154115min2024-04-20 08:29:19
午后跑步11.305'28"14361min2024-04-18 18:46:23
傍晚跑步11.355'17"14860min2024-04-17 19:02:27
傍晚跑步5.155'28"14928min2024-04-16 19:45:25
傍晚跑步5.034'00"17020min2024-04-16 19:19:49
午后跑步12.105'22"14465min2024-04-15 18:38:05
半程马拉松24.035'32"151133min2024-04-13 06:38:07
傍晚跑步11.455'29"14762min2024-04-11 19:03:55
午后跑步12.155'11"14963min2024-04-10 18:08:27
午后跑步12.314'51"15359min2024-04-09 18:54:52
午后跑步12.255'18"14765min2024-04-08 17:25:49
清晨跑步1.425'17"1627min2024-04-06 08:39:25
清晨跑步19.405'20"154103min2024-04-06 06:48:30
傍晚跑步3.505'04"14917min2024-04-04 19:16:11
午后跑步6.645'31"14836min2024-04-04 18:33:19
午后跑步10.325'37"14358min2024-04-03 18:54:36
午后跑步13.195'18"14869min2024-04-02 18:23:48
午后跑步11.285'05"14957min2024-04-01 18:18:20
半程马拉松25.775'16"156136min2024-03-31 07:21:06
午后跑步13.215'17"14769min2024-03-28 18:28:45
午后跑步13.064'54"15164min2024-03-27 18:26:18
午后跑步13.935'16"14673min2024-03-26 18:01:50
午后跑步13.095'06"15366min2024-03-25 18:15:55
半程马拉松24.025'23"151129min2024-03-23 06:47:41
午后跑步12.235'33"14368min2024-03-21 18:44:01
午后跑步12.445'09"15364min2024-03-20 18:16:03
午后跑步12.585'07"14964min2024-03-19 18:21:22
午后跑步12.145'31"14566min2024-03-18 18:05:06
半程马拉松21.825'04"159110min2024-03-17 08:15:32
清晨跑步10.046'24"13964min2024-03-16 07:11:24
午后跑步10.425'27"14756min2024-03-14 18:35:38
午后跑步11.345'38"14163min2024-03-13 18:32:23
午后跑步12.164'58"15160min2024-03-12 18:16:02
午后跑步11.345'48"14265min2024-03-11 18:28:08
半程马拉松29.045'44"150166min2024-03-09 06:38:26
午后跑步8.065'58"14648min2024-03-08 17:49:16
午后跑步12.895'16"15467min2024-03-07 18:44:25
午后跑步12.115'22"14865min2024-03-05 18:11:59
午后跑步13.025'24"14970min2024-03-04 17:37:54
清晨跑步10.825'34"14860min2024-02-29 10:14:52
清晨跑步12.055'51"14470min2024-02-27 06:10:46
午后跑步16.255'23"15487min2024-02-25 16:56:07
清晨跑步11.275'32"15662min2024-02-23 09:43:49
午后跑步13.014'47"15862min2024-02-22 18:03:22
午后跑步12.195'24"14965min2024-02-21 18:14:19
午后跑步10.005'37"15356min2024-02-20 17:09:00
半程马拉松27.165'14"160142min2024-02-17 06:49:02
午后跑步11.765'31"14664min2024-02-15 18:04:08
午后跑步11.255'30"14561min2024-02-14 18:06:39
午后跑步10.864'58"15554min2024-02-13 18:07:20
午后跑步12.125'26"14965min2024-02-12 18:14:38
清晨跑步17.426'25"144111min2024-02-10 08:18:32
清晨跑步2.665'31"15114min2024-02-10 07:34:44
午后跑步8.685'25"15147min2024-02-09 18:08:15
午后跑步13.055'21"15769min2024-02-08 18:06:57
午后跑步11.455'18"15760min2024-02-07 18:27:39
半程马拉松25.775'18"163136min2024-02-03 06:42:41
午后跑步10.965'34"15761min2024-02-01 17:26:22
午后跑步10.875'19"15357min2024-01-31 18:36:18
午后跑步12.185'20"15465min2024-01-30 18:13:44
午后跑步12.165'09"15862min2024-01-29 18:14:37
清晨跑步16.895'17"16189min2024-01-27 06:44:50
清晨跑步8.185'34"16145min2024-01-26 07:19:46
清晨跑步18.545'23"158100min2024-01-20 07:59:27
傍晚跑步6.675'37"15037min2024-01-17 20:50:19
午后跑步12.255'26"15866min2024-01-16 16:23:13
午后跑步16.675'22"16089min2024-01-12 15:28:53
午后跑步14.025'12"16773min2024-01-10 15:40:29
半程马拉松30.005'28"163164min2024-01-06 14:33:23
午后跑步11.125'21"15859min2024-01-02 15:36:58